createdAt,value
2023-04-02T00:00:23.065Z,12.18
2023-04-02T00:01:37.736Z,11.38
2023-04-02T00:03:01.512Z,11.24
2023-04-02T00:04:06.562Z,11.60
2023-04-02T00:05:28.400Z,11.17
2023-04-02T00:06:34.436Z,10.98
2023-04-02T00:07:38.732Z,11.89
2023-04-02T00:08:40.645Z,12.07
2023-04-02T00:09:43.110Z,11.91
2023-04-02T00:10:51.797Z,11.70
2023-04-02T00:11:54.445Z,11.54
2023-04-02T00:13:04.205Z,12.59
2023-04-02T00:14:19.057Z,12.26
2023-04-02T00:15:22.102Z,11.81
2023-04-02T00:16:24.311Z,12.38
2023-04-02T00:17:27.667Z,13.87
2023-04-02T00:18:31.633Z,13.25
2023-04-02T00:19:39.832Z,14.31
2023-04-02T00:20:45.300Z,12.98
2023-04-02T00:21:48.478Z,12.78
2023-04-02T00:22:50.875Z,12.09
2023-04-02T00:23:57.509Z,13.13
2023-04-02T00:25:02.705Z,13.18
2023-04-02T00:26:36.166Z,12.67
2023-04-02T00:27:39.075Z,12.04
2023-04-02T00:28:41.782Z,12.32
2023-04-02T00:29:48.468Z,12.45
2023-04-02T00:30:55.883Z,12.81
2023-04-02T00:31:59.177Z,13.18
2023-04-02T00:33:02.542Z,12.35
2023-04-02T00:34:07.770Z,12.78
2023-04-02T00:35:19.196Z,12.67
2023-04-02T00:36:22.681Z,12.78
2023-04-02T00:37:28.337Z,12.80
2023-04-02T00:38:32.835Z,12.72
2023-04-02T00:39:38.483Z,13.44
2023-04-02T00:40:41.973Z,12.88
2023-04-02T00:41:45.333Z,13.90
2023-04-02T00:42:49.035Z,13.29
2023-04-02T00:43:51.967Z,13.24
2023-04-02T00:44:54.666Z,13.41
2023-04-02T00:45:59.854Z,13.91
2023-04-02T00:47:05.731Z,13.58
2023-04-02T00:48:32.744Z,13.60
2023-04-02T00:49:38.113Z,14.58
2023-04-02T00:50:43.739Z,13.77
2023-04-02T00:53:01.817Z,14.53
2023-04-02T00:54:07.514Z,15.79
2023-04-02T00:55:16.154Z,14.37
2023-04-02T00:57:36.893Z,13.82
2023-04-02T00:58:40.214Z,15.27
2023-04-02T00:59:55.673Z,16.41
2023-04-02T01:00:59.412Z,15.33
2023-04-02T01:02:17.382Z,15.18
2023-04-02T01:03:23.599Z,14.26
2023-04-02T01:04:34.407Z,15.54
2023-04-02T01:05:37.599Z,14.91
2023-04-02T01:06:41.804Z,15.51
2023-04-02T01:07:50.422Z,15.38
2023-04-02T01:09:20.509Z,15.21
2023-04-02T01:10:41.663Z,14.48
2023-04-02T01:12:03.981Z,14.86
2023-04-02T01:13:21.978Z,14.82
2023-04-02T01:14:33.455Z,14.62
2023-04-02T01:15:45.279Z,14.72
2023-04-02T01:16:53.872Z,14.58
2023-04-02T01:18:36.125Z,15.83
2023-04-02T01:19:59.483Z,15.08
2023-04-02T01:21:17.464Z,14.19
2023-04-02T01:22:29.072Z,15.35
2023-04-02T01:23:34.748Z,14.87
2023-04-02T01:24:37.133Z,14.69
2023-04-02T01:25:42.875Z,15.81
2023-04-02T01:26:56.576Z,16.33
2023-04-02T01:28:08.306Z,15.27
2023-04-02T01:29:16.878Z,15.61
2023-04-02T01:30:19.913Z,15.11
2023-04-02T01:31:23.476Z,14.96
2023-04-02T01:32:29.319Z,15.29
2023-04-02T01:33:35.334Z,15.89
2023-04-02T01:34:38.353Z,15.28
2023-04-02T01:35:44.035Z,14.68
2023-04-02T01:37:06.888Z,15.69
2023-04-02T01:38:15.290Z,15.58
2023-04-02T01:39:27.115Z,15.49
2023-04-02T01:41:51.295Z,15.68
2023-04-02T01:43:26.486Z,16.62
2023-04-02T01:44:53.577Z,14.98
2023-04-02T01:45:57.979Z,16.50
2023-04-02T01:47:02.964Z,15.66
2023-04-02T01:48:08.527Z,16.17
2023-04-02T01:49:14.249Z,15.59
2023-04-02T01:50:23.519Z,16.30
2023-04-02T01:51:34.561Z,16.37
2023-04-02T01:52:39.994Z,16.14
2023-04-02T01:53:42.145Z,16.79
2023-04-02T01:54:46.692Z,14.32
2023-04-02T01:55:55.446Z,15.90
2023-04-02T01:56:58.399Z,16.08
2023-04-02T01:58:02.693Z,16.19
2023-04-02T01:59:07.240Z,16.62
2023-04-02T02:00:13.805Z,15.44
2023-04-02T02:01:22.165Z,15.10
2023-04-02T02:02:24.457Z,14.99
2023-04-02T02:03:27.956Z,15.29
2023-04-02T02:04:31.510Z,15.86
2023-04-02T02:05:33.928Z,16.75
2023-04-02T02:06:36.474Z,16.19
2023-04-02T02:07:38.873Z,15.40
2023-04-02T02:08:44.913Z,15.41
2023-04-02T02:09:49.056Z,14.98
2023-04-02T02:10:52.171Z,15.72
2023-04-02T02:11:59.300Z,14.99
2023-04-02T02:13:02.540Z,15.65
2023-04-02T02:14:25.054Z,15.18
2023-04-02T02:15:28.255Z,15.18
2023-04-02T02:16:30.866Z,15.46
2023-04-02T02:17:33.413Z,15.65
2023-04-02T02:18:37.687Z,15.67
2023-04-02T02:19:47.370Z,16.40
2023-04-02T02:20:50.926Z,15.19
2023-04-02T02:21:56.125Z,16.09
2023-04-02T02:23:01.264Z,15.52
2023-04-02T02:24:05.750Z,14.41
2023-04-02T02:26:32.558Z,14.19
2023-04-02T02:27:56.116Z,15.48
2023-04-02T02:29:01.613Z,15.09
2023-04-02T02:30:07.722Z,15.43
2023-04-02T02:31:16.412Z,15.39
2023-04-02T02:32:21.818Z,15.69
2023-04-02T02:33:36.028Z,15.15
2023-04-02T02:34:41.679Z,15.08
2023-04-02T02:36:05.683Z,15.98
2023-04-02T02:37:15.502Z,15.58
2023-04-02T02:38:36.167Z,15.35
2023-04-02T02:41:58.994Z,15.88
2023-04-02T02:43:03.978Z,16.40
2023-04-02T02:44:15.688Z,16.84
2023-04-02T02:45:21.518Z,16.03
2023-04-02T02:46:26.517Z,17.29
2023-04-02T02:47:31.994Z,16.55
2023-04-02T02:48:37.832Z,16.28
2023-04-02T02:49:46.014Z,17.23
2023-04-02T02:50:50.201Z,16.04
2023-04-02T02:51:55.948Z,16.91
2023-04-02T02:53:00.788Z,16.38
2023-04-02T02:54:04.947Z,15.46
2023-04-02T02:55:14.189Z,16.59
2023-04-02T02:56:19.213Z,15.63
2023-04-02T02:57:24.688Z,16.68
2023-04-02T02:58:29.820Z,15.96
2023-04-02T02:59:32.830Z,16.46
2023-04-02T03:00:36.960Z,15.76
2023-04-02T03:01:38.903Z,17.44
2023-04-02T03:02:42.321Z,16.09
2023-04-02T03:03:47.515Z,15.79
2023-04-02T03:04:53.780Z,16.72
2023-04-02T03:05:59.178Z,16.47
2023-04-02T03:07:03.580Z,15.98
2023-04-02T03:08:08.331Z,16.89
2023-04-02T03:09:23.811Z,16.52
2023-04-02T03:10:55.895Z,16.29
2023-04-02T03:12:07.635Z,16.91
2023-04-02T03:13:13.330Z,15.63
2023-04-02T03:14:34.160Z,16.97
2023-04-02T03:16:07.786Z,15.95
2023-04-02T03:17:19.688Z,15.96
2023-04-02T03:18:45.148Z,16.74
2023-04-02T03:19:56.581Z,16.68
2023-04-02T03:21:20.362Z,16.62
2023-04-02T03:22:40.790Z,17.62
2023-04-02T03:23:48.994Z,16.31
2023-04-02T03:26:13.589Z,17.69
2023-04-02T03:27:19.333Z,16.51
2023-04-02T03:28:34.063Z,16.02
2023-04-02T03:29:45.739Z,16.69
2023-04-02T03:30:51.636Z,16.91
2023-04-02T03:32:03.779Z,16.94
2023-04-02T03:33:19.262Z,16.73
2023-04-02T03:34:25.592Z,16.26
2023-04-02T03:35:42.825Z,16.72
2023-04-02T03:36:58.674Z,18.91
2023-04-02T03:38:07.653Z,17.64
2023-04-02T03:39:13.361Z,17.37
2023-04-02T03:40:23.718Z,16.96
2023-04-02T03:41:29.398Z,16.49
2023-04-02T03:43:57.260Z,17.97
2023-04-02T03:45:02.910Z,18.27
2023-04-02T03:46:14.404Z,17.86
2023-04-02T03:47:31.893Z,16.93
2023-04-02T03:48:44.657Z,16.06
2023-04-02T03:49:59.353Z,16.03
2023-04-02T03:51:14.696Z,17.53
2023-04-02T03:52:28.244Z,17.17
2023-04-02T03:53:31.309Z,15.58
2023-04-02T03:54:33.664Z,17.30
2023-04-02T03:55:38.284Z,17.61
2023-04-02T03:56:41.379Z,17.29
2023-04-02T03:57:49.114Z,17.44
2023-04-02T03:58:54.795Z,16.82
2023-04-02T04:00:00.641Z,16.71
2023-04-02T04:01:19.126Z,17.27
2023-04-02T04:02:37.088Z,16.18
2023-04-02T04:03:45.639Z,16.61
2023-04-02T04:04:49.706Z,17.26
2023-04-02T04:06:01.648Z,16.79
2023-04-02T04:07:04.169Z,17.84
2023-04-02T04:08:09.615Z,17.47
2023-04-02T04:10:37.948Z,18.28
2023-04-02T04:11:49.522Z,17.82
2023-04-02T04:12:55.083Z,19.22
2023-04-02T04:14:00.747Z,18.52
2023-04-02T04:16:20.861Z,17.45
2023-04-02T04:17:35.971Z,19.32
2023-04-02T04:18:51.037Z,17.42
2023-04-02T04:19:59.897Z,17.82
2023-04-02T04:21:05.121Z,17.02
2023-04-02T04:22:11.206Z,17.67
2023-04-02T04:23:24.428Z,18.47
2023-04-02T04:24:27.151Z,17.56
2023-04-02T04:25:32.052Z,18.15
2023-04-02T04:26:56.210Z,16.98
2023-04-02T04:28:10.464Z,16.86
2023-04-02T04:29:40.513Z,17.53
2023-04-02T04:30:49.549Z,17.73
2023-04-02T04:31:54.329Z,16.62
2023-04-02T04:33:16.966Z,17.69
2023-04-02T04:34:23.350Z,17.07
2023-04-02T04:35:40.880Z,16.59
2023-04-02T04:36:46.892Z,17.27
2023-04-02T04:37:51.851Z,16.98
2023-04-02T04:39:00.530Z,16.48
2023-04-02T04:40:06.489Z,17.00
2023-04-02T04:41:16.753Z,17.96
2023-04-02T04:42:22.578Z,21.71
2023-04-02T04:43:44.775Z,16.59
2023-04-02T04:44:56.766Z,17.06
2023-04-02T04:46:28.819Z,17.20
2023-04-02T04:47:37.810Z,17.58
2023-04-02T04:48:57.139Z,17.17
2023-04-02T04:51:33.229Z,18.19
2023-04-02T04:52:42.178Z,16.68
2023-04-02T04:53:50.528Z,15.66
2023-04-02T04:54:53.283Z,17.39
2023-04-02T04:56:06.085Z,17.11
2023-04-02T04:57:05.899Z,17.03
2023-04-02T04:58:14.361Z,17.31
2023-04-02T04:59:29.120Z,16.62
2023-04-02T05:00:40.378Z,16.81
2023-04-02T05:02:01.213Z,17.06
2023-04-02T05:03:07.227Z,16.13
2023-04-02T05:04:25.226Z,16.29
2023-04-02T05:05:30.698Z,16.86
2023-04-02T05:06:36.533Z,17.22
2023-04-02T05:07:45.387Z,16.73
2023-04-02T05:08:50.507Z,15.62
2023-04-02T05:09:56.189Z,16.10
2023-04-02T05:11:05.051Z,16.46
2023-04-02T05:12:13.767Z,16.03
2023-04-02T05:14:40.170Z,16.72
2023-04-02T05:16:06.031Z,16.43
2023-04-02T05:17:21.246Z,15.67
2023-04-02T05:18:34.419Z,17.10
2023-04-02T05:19:49.329Z,16.64
2023-04-02T05:21:00.440Z,15.92
2023-04-02T05:22:21.297Z,16.37
2023-04-02T05:23:32.585Z,17.21
2023-04-02T05:24:58.150Z,17.07
2023-04-02T05:26:06.913Z,16.96
2023-04-02T05:27:31.011Z,16.81
2023-04-02T05:29:02.974Z,16.26
2023-04-02T05:30:24.128Z,16.02
2023-04-02T05:33:54.892Z,15.58
2023-04-02T05:34:58.194Z,16.02
2023-04-02T05:36:07.126Z,16.94
2023-04-02T05:37:25.348Z,19.31
2023-04-02T05:38:31.088Z,17.03
2023-04-02T05:39:34.219Z,17.43
2023-04-02T05:40:43.008Z,17.42
2023-04-02T05:41:46.177Z,16.87
2023-04-02T05:42:51.393Z,16.39
2023-04-02T05:45:40.949Z,16.81
2023-04-02T05:46:55.898Z,16.89
2023-04-02T05:48:01.691Z,16.61
2023-04-02T05:49:07.682Z,16.03
2023-04-02T05:50:13.848Z,16.26
2023-04-02T05:52:32.853Z,15.49
2023-04-02T05:53:38.508Z,15.57
2023-04-02T05:54:56.015Z,16.98
2023-04-02T05:56:14.069Z,14.94
2023-04-02T05:57:39.395Z,15.36
2023-04-02T05:58:36.993Z,15.73
2023-04-02T05:59:45.352Z,17.04
2023-04-02T06:02:35.422Z,16.45
2023-04-02T06:03:59.571Z,15.49
2023-04-02T06:05:17.347Z,15.44
2023-04-02T06:06:28.991Z,16.26
2023-04-02T06:07:34.681Z,15.24
2023-04-02T06:08:40.353Z,15.62
2023-04-02T06:09:46.041Z,15.80
2023-04-02T06:10:57.836Z,16.37
2023-04-02T06:12:03.589Z,14.85
2023-04-02T06:13:08.278Z,16.23
2023-04-02T06:14:15.909Z,15.51
2023-04-02T06:15:21.204Z,15.73
2023-04-02T06:16:27.102Z,16.52
2023-04-02T06:17:29.840Z,16.14
2023-04-02T06:18:36.129Z,15.66
2023-04-02T06:19:38.964Z,15.89
2023-04-02T06:20:41.193Z,16.41
2023-04-02T06:21:47.836Z,16.55
2023-04-02T06:22:59.360Z,17.16
2023-04-02T06:24:04.945Z,17.64
2023-04-02T06:25:25.717Z,18.12
2023-04-02T06:26:41.248Z,16.95
2023-04-02T06:27:46.144Z,16.67
2023-04-02T06:30:05.329Z,17.15
2023-04-02T06:31:11.006Z,17.09
2023-04-02T06:32:12.992Z,15.28
2023-04-02T06:33:14.967Z,16.76
2023-04-02T06:34:22.967Z,16.99
2023-04-02T06:35:27.398Z,15.57
2023-04-02T06:36:31.892Z,16.98
2023-04-02T06:37:43.814Z,16.10
2023-04-02T06:38:49.946Z,16.61
2023-04-02T06:39:52.061Z,16.59
2023-04-02T06:41:00.806Z,15.53
2023-04-02T06:42:07.920Z,16.44
2023-04-02T06:44:43.424Z,15.76
2023-04-02T06:45:48.282Z,15.81
2023-04-02T06:46:54.240Z,15.09
2023-04-02T06:47:59.313Z,14.12
2023-04-02T06:50:24.616Z,15.96
2023-04-02T06:51:28.114Z,16.15
2023-04-02T06:52:46.045Z,15.13
2023-04-02T06:53:49.758Z,14.59
2023-04-02T06:54:52.602Z,14.61
2023-04-02T06:55:58.353Z,14.20
2023-04-02T06:57:00.418Z,13.56
2023-04-02T06:58:02.689Z,13.01
2023-04-02T06:59:04.718Z,13.57
2023-04-02T07:00:11.864Z,16.35
2023-04-02T07:01:23.155Z,29.41
2023-04-02T07:02:32.161Z,14.97
2023-04-02T07:03:34.605Z,13.99
2023-04-02T07:04:37.018Z,14.43
2023-04-02T07:05:41.106Z,14.15
2023-04-02T07:06:42.889Z,13.82
2023-04-02T07:07:44.777Z,13.10
2023-04-02T07:08:47.381Z,14.65
2023-04-02T07:09:49.254Z,13.15
2023-04-02T07:10:52.207Z,13.31
2023-04-02T07:11:54.067Z,13.91
2023-04-02T07:12:56.980Z,13.23
2023-04-02T07:13:59.709Z,13.30
2023-04-02T07:15:01.980Z,12.79
2023-04-02T07:16:05.985Z,12.63
2023-04-02T07:17:12.013Z,14.00
2023-04-02T07:18:23.302Z,11.97
2023-04-02T07:19:25.512Z,12.83
2023-04-02T07:20:31.037Z,12.82
2023-04-02T07:21:33.135Z,12.74
2023-04-02T07:22:35.041Z,12.47
2023-04-02T07:23:38.087Z,12.59
2023-04-02T07:24:39.992Z,12.49
2023-04-02T07:25:41.879Z,13.19
2023-04-02T07:26:43.845Z,12.39
2023-04-02T07:27:46.501Z,12.73
2023-04-02T07:28:49.596Z,12.15
2023-04-02T07:29:52.032Z,12.54
2023-04-02T07:30:55.077Z,12.74
2023-04-02T07:31:56.971Z,13.12
2023-04-02T07:32:59.448Z,12.25
2023-04-02T07:34:01.990Z,11.81
2023-04-02T07:35:04.782Z,11.86
2023-04-02T07:36:07.247Z,12.19
2023-04-02T07:37:13.051Z,10.97
2023-04-02T07:38:15.277Z,11.98
2023-04-02T07:39:17.201Z,10.95
2023-04-02T07:40:20.995Z,10.90
2023-04-02T07:41:23.445Z,10.76
2023-04-02T07:42:25.419Z,10.30
2023-04-02T07:43:27.296Z,10.52
2023-04-02T07:44:29.186Z,10.37
2023-04-02T07:45:31.967Z,10.33
2023-04-02T07:46:34.032Z,10.61
2023-04-02T07:47:35.992Z,10.38
2023-04-02T07:48:37.953Z,14.30
2023-04-02T07:49:39.885Z,12.41
2023-04-02T07:50:42.139Z,10.26
2023-04-02T07:51:44.171Z,9.61
2023-04-02T07:52:46.159Z,9.90
2023-04-02T07:53:49.188Z,9.53
2023-04-02T07:54:51.101Z,9.63
2023-04-02T07:55:53.748Z,9.10
2023-04-02T07:56:56.330Z,8.57
2023-04-02T07:57:58.654Z,9.52
2023-04-02T07:59:00.526Z,8.79
2023-04-02T08:00:03.097Z,9.51
2023-04-02T08:01:09.124Z,9.25
2023-04-02T08:03:27.588Z,8.98
2023-04-02T08:04:30.162Z,8.40
2023-04-02T08:05:32.018Z,8.59
2023-04-02T08:06:33.993Z,8.21
2023-04-02T08:07:36.525Z,8.56
2023-04-02T08:08:39.031Z,8.07
2023-04-02T08:09:41.029Z,8.21
2023-04-02T08:10:43.279Z,7.42
2023-04-02T08:11:45.173Z,8.15
2023-04-02T08:12:47.143Z,8.31
2023-04-02T08:13:49.200Z,8.43
2023-04-02T08:14:51.084Z,8.30
2023-04-02T08:15:52.940Z,8.67
2023-04-02T08:16:54.914Z,7.89
2023-04-02T08:17:57.143Z,8.40
2023-04-02T08:18:59.337Z,8.21
2023-04-02T08:20:01.348Z,8.82
2023-04-02T08:21:07.028Z,8.25
2023-04-02T08:22:09.200Z,8.88
2023-04-02T08:23:15.337Z,8.74
2023-04-02T08:24:17.885Z,8.18
2023-04-02T08:25:19.846Z,8.51
2023-04-02T08:26:21.827Z,8.54
2023-04-02T08:27:24.688Z,7.62
2023-04-02T08:28:26.929Z,8.08
2023-04-02T08:29:28.965Z,8.38
2023-04-02T08:30:30.990Z,7.67
2023-04-02T08:31:32.995Z,7.93
2023-04-02T08:32:35.450Z,8.25
2023-04-02T08:33:37.694Z,7.85
2023-04-02T08:34:39.630Z,8.62
2023-04-02T08:35:41.746Z,8.33
2023-04-02T08:36:44.168Z,8.19
2023-04-02T08:37:46.029Z,8.99
2023-04-02T08:38:47.890Z,8.37
2023-04-02T08:39:49.832Z,8.80
2023-04-02T08:40:56.894Z,8.15
2023-04-02T08:42:02.840Z,9.53
2023-04-02T08:43:09.035Z,8.95
2023-04-02T08:44:34.532Z,9.18
2023-04-02T08:45:43.103Z,8.72
2023-04-02T08:48:12.215Z,9.22
2023-04-02T08:49:17.666Z,9.29
2023-04-02T08:50:32.786Z,9.42
2023-04-02T08:51:36.273Z,9.46
2023-04-02T08:52:38.891Z,9.73
2023-04-02T08:53:41.898Z,8.87
2023-04-02T08:54:44.066Z,10.38
2023-04-02T08:55:58.572Z,9.48
2023-04-02T08:57:19.536Z,9.46
2023-04-02T08:58:40.349Z,10.24
2023-04-02T08:59:44.298Z,9.74
2023-04-02T09:00:50.607Z,9.71
2023-04-02T09:01:59.468Z,9.53
2023-04-02T09:03:16.813Z,9.89
2023-04-02T09:04:22.409Z,10.35
2023-04-02T09:05:30.933Z,11.28
2023-04-02T09:06:33.452Z,10.04
2023-04-02T09:07:35.476Z,10.41
2023-04-02T09:08:39.328Z,10.20
2023-04-02T09:09:44.591Z,10.58
2023-04-02T09:11:09.268Z,11.02
2023-04-02T09:13:28.383Z,12.08
2023-04-02T09:14:43.028Z,13.24
2023-04-02T09:15:45.233Z,13.54
2023-04-02T09:16:53.872Z,12.61
2023-04-02T09:17:59.771Z,13.47
2023-04-02T09:19:01.862Z,12.97
2023-04-02T09:20:15.784Z,13.99
2023-04-02T09:21:26.930Z,14.19
2023-04-02T09:22:31.157Z,15.19
2023-04-02T09:23:33.307Z,13.98
2023-04-02T09:24:35.954Z,14.01
2023-04-02T09:25:42.189Z,15.21
2023-04-02T09:26:46.010Z,14.19
2023-04-02T09:27:51.469Z,13.29
2023-04-02T09:29:03.312Z,15.18
2023-04-02T09:30:27.068Z,13.36
2023-04-02T09:31:47.845Z,14.52
2023-04-02T09:33:02.105Z,13.35
2023-04-02T09:34:25.498Z,13.39
2023-04-02T09:35:30.240Z,12.99
2023-04-02T09:36:38.657Z,13.29
2023-04-02T09:37:42.506Z,12.88
2023-04-02T09:39:07.483Z,12.70
2023-04-02T09:40:25.644Z,14.09
2023-04-02T09:41:29.641Z,12.64
2023-04-02T09:42:34.372Z,11.82
2023-04-02T09:43:39.367Z,12.44
2023-04-02T09:44:41.357Z,13.33
2023-04-02T09:45:45.955Z,12.67
2023-04-02T09:47:03.485Z,12.79
2023-04-02T09:48:18.647Z,12.91
2023-04-02T09:49:24.358Z,13.12
2023-04-02T09:51:41.036Z,12.46
2023-04-02T09:52:43.231Z,12.82
2023-04-02T09:53:48.353Z,13.41
2023-04-02T09:55:17.113Z,12.47
2023-04-02T09:56:23.657Z,14.40
2023-04-02T09:57:25.709Z,13.97
2023-04-02T09:58:27.801Z,12.85
2023-04-02T09:59:29.837Z,13.32
2023-04-02T10:00:32.806Z,12.58
2023-04-02T10:01:57.290Z,12.29
2023-04-02T10:03:19.981Z,11.35
2023-04-02T10:04:37.547Z,12.50
2023-04-02T10:05:41.245Z,13.11
2023-04-02T10:08:06.985Z,14.23
2023-04-02T10:09:22.023Z,11.88
2023-04-02T10:10:30.572Z,10.83
2023-04-02T10:11:46.260Z,11.53
2023-04-02T10:12:41.398Z,11.51
2023-04-02T10:14:05.404Z,11.27
2023-04-02T10:15:17.630Z,10.57
2023-04-02T10:16:29.359Z,10.03
2023-04-02T10:17:35.266Z,9.40
2023-04-02T10:18:49.963Z,9.52
2023-04-02T10:19:55.586Z,8.89
2023-04-02T10:21:01.710Z,8.73
2023-04-02T10:23:18.290Z,9.68
2023-04-02T10:24:20.186Z,8.39
2023-04-02T10:25:25.865Z,8.07
2023-04-02T10:26:35.139Z,7.77
2023-04-02T10:27:47.897Z,8.89
2023-04-02T10:29:11.385Z,8.31
2023-04-02T10:30:27.075Z,8.26
2023-04-02T10:31:54.357Z,7.93
2023-04-02T10:33:03.002Z,7.99
2023-04-02T10:34:08.862Z,8.34
2023-04-02T10:35:14.537Z,8.64
2023-04-02T10:36:41.904Z,8.02
2023-04-02T10:37:47.588Z,7.52
2023-04-02T10:39:05.167Z,7.52
2023-04-02T10:40:17.217Z,7.61
2023-04-02T10:41:32.013Z,7.55
2023-04-02T10:42:49.517Z,7.44
2023-04-02T10:44:19.375Z,7.32
2023-04-02T10:45:25.320Z,6.52
2023-04-02T10:46:43.312Z,6.56
2023-04-02T10:47:52.274Z,5.97
2023-04-02T10:49:15.873Z,6.45
2023-04-02T10:50:24.573Z,6.23
2023-04-02T10:51:50.080Z,6.17
2023-04-02T10:52:56.600Z,5.97
2023-04-02T10:54:08.844Z,6.16
2023-04-02T10:55:24.695Z,5.64
2023-04-02T10:56:35.299Z,5.91
2023-04-02T10:57:39.460Z,6.18
2023-04-02T10:59:00.891Z,5.67
2023-04-02T11:01:18.143Z,5.67
2023-04-02T11:03:49.909Z,5.96
2023-04-02T11:04:55.361Z,5.68
2023-04-02T11:06:01.451Z,5.30
2023-04-02T11:07:14.359Z,5.90
2023-04-02T11:08:17.114Z,5.83
2023-04-02T11:09:25.932Z,6.18
2023-04-02T11:10:31.869Z,5.39
2023-04-02T11:11:43.400Z,4.84
2023-04-02T11:13:56.049Z,5.77
2023-04-02T11:15:00.353Z,4.67
2023-04-02T11:16:02.943Z,6.38
2023-04-02T11:17:05.298Z,5.31
2023-04-02T11:18:23.443Z,4.99
2023-04-02T11:19:30.875Z,5.09
2023-04-02T11:20:51.882Z,4.90
2023-04-02T11:22:06.915Z,4.43
2023-04-02T11:23:12.150Z,5.63
2023-04-02T11:24:27.881Z,4.91
2023-04-02T11:25:29.970Z,5.31
2023-04-02T11:26:44.426Z,5.54
2023-04-02T11:27:47.608Z,5.04
2023-04-02T11:28:51.475Z,5.11
2023-04-02T11:30:03.037Z,5.37
2023-04-02T11:31:05.057Z,4.97
2023-04-02T11:32:23.027Z,5.35
2023-04-02T11:35:05.878Z,4.69
2023-04-02T11:35:58.729Z,4.93
2023-04-02T11:37:04.445Z,4.87
2023-04-02T11:38:12.901Z,5.13
2023-04-02T11:39:21.924Z,5.17
2023-04-02T11:40:53.529Z,4.99
2023-04-02T11:42:04.874Z,4.77
2023-04-02T11:43:36.460Z,5.01
2023-04-02T11:44:38.399Z,4.45
2023-04-02T11:45:52.831Z,5.34
2023-04-02T11:46:50.922Z,5.03
2023-04-02T11:48:02.730Z,5.07
2023-04-02T11:49:36.978Z,4.76
2023-04-02T11:50:44.755Z,4.67
2023-04-02T11:51:54.381Z,4.89
2023-04-02T11:52:56.004Z,5.17
2023-04-02T11:53:58.350Z,4.72
2023-04-02T11:55:22.490Z,4.87
2023-04-02T11:56:40.929Z,4.67
2023-04-02T11:57:58.666Z,4.52
2023-04-02T11:59:19.593Z,4.81
2023-04-02T12:00:34.578Z,4.67
2023-04-02T12:02:06.371Z,4.68
2023-04-02T12:03:26.717Z,5.17
2023-04-02T12:04:43.985Z,4.98
2023-04-02T12:05:55.488Z,5.19
2023-04-02T12:07:17.939Z,5.26
2023-04-02T12:08:58.352Z,5.08
2023-04-02T12:10:20.461Z,4.56
2023-04-02T12:11:35.073Z,4.76
2023-04-02T12:12:38.366Z,5.64
2023-04-02T12:13:44.012Z,5.29
2023-04-02T12:14:51.749Z,4.68
2023-04-02T12:15:57.346Z,5.58
2023-04-02T12:16:59.994Z,5.04
2023-04-02T12:18:18.043Z,5.14
2023-04-02T12:19:20.175Z,4.51
2023-04-02T12:20:26.106Z,4.68
2023-04-02T12:21:29.031Z,4.67
2023-04-02T12:22:33.768Z,5.18
2023-04-02T12:23:36.941Z,5.08
2023-04-02T12:24:42.349Z,5.24
2023-04-02T12:25:48.046Z,5.68
2023-04-02T12:27:19.731Z,5.24
2023-04-02T12:28:21.645Z,4.64
2023-04-02T12:29:25.825Z,4.59
2023-04-02T12:30:30.464Z,4.12
2023-04-02T12:31:32.494Z,3.94
2023-04-02T12:32:35.214Z,3.89
2023-04-02T12:33:39.217Z,4.04
2023-04-02T12:34:44.887Z,3.72
2023-04-02T12:35:50.183Z,3.80
2023-04-02T12:37:01.454Z,3.93
2023-04-02T12:38:03.375Z,4.47
2023-04-02T12:39:09.163Z,4.37
2023-04-02T12:41:33.218Z,4.68
2023-04-02T12:42:36.861Z,4.37
2023-04-02T12:43:38.840Z,4.67
2023-04-02T12:44:44.482Z,4.09
2023-04-02T12:45:50.280Z,4.91
2023-04-02T12:46:53.722Z,5.07
2023-04-02T12:47:57.247Z,5.33
2023-04-02T12:49:05.554Z,6.16
2023-04-02T12:50:11.911Z,7.13
2023-04-02T12:51:13.905Z,9.53
2023-04-02T12:52:19.613Z,17.46
2023-04-02T12:54:30.593Z,9.21
2023-04-02T12:55:33.921Z,7.50
2023-04-02T12:56:35.882Z,6.87
2023-04-02T12:57:39.084Z,5.53
2023-04-02T12:58:42.124Z,5.51
2023-04-02T12:59:44.023Z,4.83
2023-04-02T13:00:46.594Z,5.15
2023-04-02T13:02:01.105Z,4.93
2023-04-02T13:03:10.787Z,5.66
2023-04-02T13:04:14.845Z,6.09
2023-04-02T13:05:41.111Z,6.18
2023-04-02T13:06:49.809Z,5.99
2023-04-02T13:07:52.132Z,5.53
2023-04-02T13:08:54.186Z,5.77
2023-04-02T13:11:08.630Z,6.14
2023-04-02T13:12:29.595Z,5.95
2023-04-02T13:13:40.139Z,6.08
2023-04-02T13:14:42.138Z,5.57
2023-04-02T13:15:44.032Z,5.91
2023-04-02T13:16:47.366Z,5.43
2023-04-02T13:18:15.010Z,6.19
2023-04-02T13:19:20.688Z,5.98
2023-04-02T13:20:31.820Z,6.53
2023-04-02T13:21:33.818Z,6.70
2023-04-02T13:22:36.551Z,5.94
2023-04-02T13:23:40.661Z,6.30
2023-04-02T13:24:42.643Z,7.56
2023-04-02T13:25:45.493Z,6.52
2023-04-02T13:26:49.222Z,6.63
2023-04-02T13:27:51.215Z,7.37
2023-04-02T13:29:05.771Z,6.98
2023-04-02T13:30:10.003Z,6.63
2023-04-02T13:31:15.195Z,6.99
2023-04-02T13:32:17.222Z,6.47
2023-04-02T13:33:19.280Z,8.59
2023-04-02T13:34:21.375Z,16.73
2023-04-02T13:35:23.335Z,8.96
2023-04-02T13:36:25.917Z,7.39
2023-04-02T13:37:27.845Z,6.87
2023-04-02T13:38:29.870Z,7.50
2023-04-02T13:39:31.734Z,7.38
2023-04-02T13:40:36.374Z,7.95
2023-04-02T13:41:43.918Z,8.13
2023-04-02T13:42:48.139Z,7.36
2023-04-02T13:43:51.165Z,7.56
2023-04-02T13:44:53.390Z,7.72
2023-04-02T13:45:59.265Z,7.71
2023-04-02T13:47:01.482Z,8.85
2023-04-02T13:48:04.755Z,8.73
2023-04-02T13:49:09.164Z,8.77
2023-04-02T13:50:18.368Z,10.17
2023-04-02T13:51:24.136Z,9.12
2023-04-02T13:52:26.129Z,9.60
2023-04-02T13:53:31.871Z,10.19
2023-04-02T13:54:46.858Z,10.27
2023-04-02T13:55:50.467Z,10.61
2023-04-02T13:56:55.101Z,11.50
2023-04-02T13:57:57.533Z,14.22
2023-04-02T13:58:59.911Z,15.72
2023-04-02T14:00:03.539Z,14.99
2023-04-02T14:01:05.848Z,15.64
2023-04-02T14:02:17.497Z,16.41
2023-04-02T14:03:22.363Z,17.61
2023-04-02T14:06:13.596Z,21.68
2023-04-02T14:07:28.741Z,18.39
2023-04-02T14:08:53.442Z,16.88
2023-04-02T14:10:08.234Z,17.80
2023-04-02T14:11:26.095Z,16.78
2023-04-02T14:12:51.691Z,17.33
2023-04-02T14:14:09.285Z,18.69
2023-04-02T14:15:17.740Z,22.13
2023-04-02T14:16:32.992Z,18.09
2023-04-02T14:17:48.110Z,18.42
2023-04-02T14:19:10.519Z,17.83
2023-04-02T14:21:51.190Z,18.78
2023-04-02T14:23:27.110Z,19.01
2023-04-02T14:26:06.965Z,17.01
2023-04-02T14:27:29.953Z,16.43
2023-04-02T14:29:00.168Z,15.83
2023-04-02T14:30:23.969Z,15.78
2023-04-02T14:33:07.651Z,14.10
2023-04-02T14:34:40.850Z,14.54
2023-04-02T14:35:46.331Z,15.31
2023-04-02T14:37:11.841Z,14.18
2023-04-02T14:38:26.528Z,14.50
2023-04-02T14:39:41.429Z,13.46
2023-04-02T14:41:05.653Z,13.62
2023-04-02T14:42:17.830Z,14.61
2023-04-02T14:43:44.908Z,13.74
2023-04-02T14:46:18.412Z,14.59
2023-04-02T14:47:24.378Z,14.39
2023-04-02T14:48:46.851Z,14.26
2023-04-02T14:51:06.314Z,14.01
2023-04-02T14:52:15.996Z,12.42
2023-04-02T14:53:21.978Z,14.46
2023-04-02T14:54:37.100Z,14.01
2023-04-02T14:55:42.433Z,12.71
2023-04-02T14:58:03.987Z,11.98
2023-04-02T15:00:35.578Z,13.51
2023-04-02T15:01:41.744Z,13.09
2023-04-02T15:03:08.951Z,11.77
2023-04-02T15:05:30.789Z,13.57
2023-04-02T15:06:39.803Z,11.89
2023-04-02T15:09:35.486Z,13.74
2023-04-02T15:10:50.310Z,13.09
2023-04-02T15:13:12.792Z,13.13
2023-04-02T15:14:36.422Z,13.53
2023-04-02T15:15:48.113Z,11.86
2023-04-02T15:16:50.214Z,12.87
2023-04-02T15:17:52.247Z,13.39
2023-04-02T15:19:00.615Z,13.54
2023-04-02T15:20:17.916Z,12.99
2023-04-02T15:21:23.580Z,14.19
2023-04-02T15:22:32.220Z,13.79
2023-04-02T15:23:56.266Z,13.72
2023-04-02T15:25:08.204Z,13.16
2023-04-02T15:26:27.205Z,13.23
2023-04-02T15:27:45.330Z,13.74
2023-04-02T15:29:02.618Z,14.19
2023-04-02T15:30:08.713Z,14.03
2023-04-02T15:31:14.487Z,14.34
2023-04-02T15:32:35.420Z,14.31
2023-04-02T15:33:53.477Z,14.29
2023-04-02T15:35:26.867Z,15.79
2023-04-02T15:36:38.252Z,13.71
2023-04-02T15:39:05.960Z,14.69
2023-04-02T15:40:30.276Z,14.88
2023-04-02T15:44:16.218Z,15.64
2023-04-02T15:45:27.811Z,14.92
2023-04-02T15:46:57.652Z,15.43
2023-04-02T15:48:30.741Z,15.08
2023-04-02T15:49:42.721Z,17.29
2023-04-02T15:50:57.519Z,15.38
2023-04-02T15:52:03.166Z,16.10
2023-04-02T15:53:21.067Z,17.23
2023-04-02T15:54:29.956Z,15.98
2023-04-02T15:55:47.732Z,15.96
2023-04-02T15:57:11.946Z,15.66
2023-04-02T15:58:26.251Z,15.25
2023-04-02T15:59:43.907Z,15.45